Terminal Aerodrome Forecast
Issued by NWS Twin Cities, MN

Home | Current Version | Previous Version | Graphics & Text | Print | Product List | Glossary Off
Versions: 1 2 3 4 5 6 7 8 9 10 11 12 13 14 15 16 17 18 19 20 21 22 23 24 25

000
FTUS43 KMPX 231100
TAFMSP
TAF
KMSP 231124Z 2312/2418 16006KT 6SM BR SCT008 BKN012
      TEMPO 2312/2314 4SM BR BKN008
     FM231500 21007KT P6SM FEW008 BKN015
     FM231700 24008KT P6SM FEW015
     FM240100 22005KT P6SM SKC
     FM240900 19004KT P6SM FEW250
     FM241500 18006KT P6SM SCT030=

USA.gov is the U.S. government's official web portal to all federal, state and local government web resources and services.